Flight Track Log - Related Links

Times and Time Zones

All times are in EDT time to prevent confusion due to time zone crossing. See the PDT4420 flight status page for this flight to view local times or setup timezone preferences in your user account.

Time Position Orientation Groundspeed Altitude Reporting Facility
EDT Latitude Longitude Course Direction KTS MPH feet Rate Location/Type
Sun 09:23:42 AM 37.1247 -76.5036 58° Northeast 170 196 500  Level Washington Center
Sun 09:24:34 AM 37.1078 -76.5372 238° Southwest 121 139 2,100 1,381 Climbing Washington Center
Sun 09:25:35 AM 37.1139 -76.5789 280° West 147 169 3,100 984 Climbing Washington Center
Sun 09:26:00 AM 37.2687 -76.3209 44° Northeast  Level FlightAware Approximate
Sun 09:26:36 AM 37.1475 -76.5350 46° Northeast 149 171 4,100  Level Washington Center
Sun 09:27:00 AM 37.3169 -76.2631 44° Northeast  Level FlightAware Approximate
Sun 09:27:34 AM 37.1750 -76.4964 48° Northeast 179 206 5,100  Level Washington Center
Sun 09:28:00 AM 37.3651 -76.2052 44° Northeast  Level FlightAware Approximate
Sun 09:28:35 AM 37.2106 -76.4628 37° Northeast 179 206 6,300  Level Washington Center
Sun 09:29:00 AM 37.4185 -76.1630 58° Northeast  Level FlightAware Approximate
Sun 09:29:36 AM 37.2422 -76.4214 46° Northeast 173 199 7,400  Level Washington Center
Sun 09:30:34 AM 37.2736 -76.3853 42° Northeast 168 193 8,400 1,068 Climbing Washington Center
Sun 09:31:34 AM 37.3075 -76.3411 46° Northeast 168 193 9,500 942 Climbing Washington Center
Sun 09:32:35 AM 37.3431 -76.2944 46° Northeast 175 201 10,300 893 Climbing Washington Center
Sun 09:33:35 AM 37.3789 -76.2425 49° Northeast 182 209 11,300 942 Climbing Washington Center
Sun 09:34:36 AM 37.4147 -76.1906 49° Northeast 188 216 12,200 893 Climbing Washington Center
Sun 09:35:36 AM 37.4608 -76.1386 42° Northeast 188 216 13,100 872 Climbing Washington Center
Sun 09:36:33 AM 37.5028 -76.0892 43° Northeast 193 222 13,900 807 Climbing Washington Center
Sun 09:37:35 AM 37.5444 -76.0372 45° Northeast 198 228 14,700 800 Climbing Washington Center
Sun 09:38:33 AM 37.5886 -75.9903 40° Northeast 198 228 15,500 807 Climbing Washington Center
Sun 09:39:34 AM 37.6303 -75.9406 43° Northeast 198 228 16,300 738 Climbing Washington Center
Sun 09:40:35 AM 37.6744 -75.8856 45° Northeast 204 235 17,000 347 Climbing Washington Center
Sun 09:41:35 AM 37.7203 -75.8333 42° Northeast 209 241 17,000  Level Washington Center
Sun 09:42:33 AM 37.7725 -75.7808 38° Northeast 220 253 17,000  Level Washington Center
Sun 09:43:34 AM 37.8269 -75.7181 42° Northeast 240 276 17,000  Level Washington Center
Sun 09:44:35 AM 37.8792 -75.6575 42° Northeast 245 282 17,000 -49 Level Washington Center
Sun 09:45:36 AM 37.9167 -75.5867 56° Northeast 245 282 16,900  Descending Washington Center
Sun 09:46:33 AM 37.9583 -75.5364 44° Northeast 250 288 17,000 51 Climbing Washington Center
Sun 09:47:34 AM 38.0292 -75.4864 29° Northeast 244 281 17,000  Level Washington Center
Sun 09:48:34 AM 38.0917 -75.4519 23° Northeast 238 274 17,000  Level Washington Center
Sun 09:49:35 AM 38.1522 -75.4147 26° Northeast 233 268 17,000  Level Washington Center
Sun 09:50:33 AM 38.2147 -75.3750 27° Northeast 238 274 17,000 -500 Level Washington Center
Sun 09:51:35 AM 38.2792 -75.3353 26° Northeast 243 280 16,000 -893 Descending Washington Center
Sun 09:52:34 AM 38.3353 -75.2900 32° Northeast 243 280 15,200 -908 Descending Washington Center
Sun 09:53:34 AM 38.3978 -75.2472 28° Northeast 250 288 14,200 -1,033 Descending Washington Center
Sun 09:54:36 AM 38.4622 -75.2047 27° Northeast 250 288 13,100 -1,100 Descending Washington Center
Sun 09:55:34 AM 38.5267 -75.1644 26° Northeast 250 288 12,000 -1,068 Descending Washington Center
Sun 09:56:34 AM 38.5786 -75.1031 43° Northeast 250 288 11,000 -500 Descending Washington Center
Sun 09:57:34 AM 38.6306 -75.0522 37° Northeast 245 282 11,000  Level Washington Center
Sun 09:58:35 AM 38.6950 -75.0172 23° Northeast 245 282 11,000  Level Washington Center
Sun 09:59:36 AM 38.7617 -75.0167 360° North 232 267 11,000 -353 Level Washington Center
Sun 10:00:34 AM 38.8306 -75.0161 360° North 237 273 10,300 -864 Descending Washington Center
Sun 10:01:34 AM 38.9014 -75.0075 North 242 278 9,300 -992 Descending Washington Center
Sun 10:02:35 AM 38.9703 -75.0042 North 247 284 8,300 -650 Descending Washington Center
Sun 10:03:34 AM 39.0389 -74.9983 North 247 284 8,000 -555 Descending Washington Center
Sun 10:04:34 AM 39.1036 -74.9953 North 242 278 7,200 -893 Descending Washington Center
Sun 10:05:35 AM 39.1722 -74.9919 North 237 273 6,200 -984 Descending Washington Center
Sun 10:06:36 AM 39.2389 -74.9858 North 237 273 5,200 -992 Descending Washington Center
Sun 10:07:36 AM 39.3056 -74.9961 353° North 232 267 4,200 -600 Descending Washington Center
Sun 10:08:36 AM 39.3622 -75.0358 332° Northwest 227 261 4,000 -102 Descending Washington Center
Sun 10:09:34 AM 39.4228 -75.0731 335° Northwest 227 261 4,000  Level Washington Center
Sun 10:10:34 AM 39.4792 -75.1075 335° Northwest 227 261 4,000  Level Washington Center
Sun 10:13:03 AM 39.6333 -75.2000 335° Northwest 233 268 4,000  Level Philadelphia TRACON
Sun 10:14:03 AM 39.7000 -75.2333 339° North 234 269 4,000  Level Philadelphia TRACON
Sun 10:15:03 AM 39.7500 -75.2500 346° North 234 269 4,000  Level Philadelphia TRACON
Sun 10:16:03 AM 39.8167 -75.2833 339° North 235 270 4,000  Level Philadelphia TRACON
Sun 10:17:03 AM 39.8833 -75.3167 339° North 227 261 4,000  Level Philadelphia TRACON
Sun 10:18:03 AM 39.9333 -75.3333 346° North 197 227 4,000  Level Philadelphia TRACON
Sun 10:19:03 AM 39.9667 -75.3667 323° Northwest 191 220 4,000  Level Philadelphia TRACON
Sun 10:20:03 AM 40.0167 -75.4000 333° Northwest 195 224 4,000 -100 Level Philadelphia TRACON
Sun 10:21:03 AM 40.0667 -75.4333 333° Northwest 203 234 3,800 -500 Descending Philadelphia TRACON
Sun 10:22:03 AM 40.0833 -75.3833 66° East 187 215 3,000 -400 Descending Philadelphia TRACON
Sun 10:23:03 AM 40.0500 -75.3333 131° Southeast 175 201 3,000 -250 Level Philadelphia TRACON
Sun 10:24:03 AM 40.0167 -75.3000 143° Southeast 164 189 2,500 -650 Descending Philadelphia TRACON
Sun 10:25:03 AM 39.9667 -75.2833 166° South 157 181 1,700 -750 Descending Philadelphia TRACON
Sun 10:26:03 AM 39.9333 -75.2667 159° South 136 157 1,000 -619 Descending Philadelphia TRACON
Sun 10:27:09 AM 39.9000 -75.2500 159° South 113 130 400 -545 Descending Philadelphia TRACON

Login

Don't have an account? Register now (free) for customized features, flight alerts, and more!